Time;durP1;ratioP1;P1;durP2;ratioP2;P2;SDS_P1;SDS_P2;PMS_P1;PMS_P2;Temp;Humidity;BMP_temperature;BMP_pressure;BME280_temperature;BME280_humidity;BME280_pressure;Samples;Min_cycle;Max_cycle;Signal;HPM_P1;HPM_P2
2021/01/16 00:00:49;;;;;;;3.53;3.23;;;;;;;17.79;42.49;101572.41;;;;-58
2021/01/16 00:03:49;;;;;;;3.57;3.27;;;;;;;17.79;42.52;101569.16;;;;-58
2021/01/16 00:06:49;;;;;;;3.49;3.19;;;;;;;17.77;42.49;101568.28;;;;-58
2021/01/16 00:09:49;;;;;;;3.41;3.11;;;;;;;17.75;42.54;101564.65;;;;-58
2021/01/16 00:12:50;;;;;;;3.97;3.57;;;;;;;17.73;42.57;101565.55;;;;-58
2021/01/16 00:15:49;;;;;;;3.87;3.47;;;;;;;17.70;42.63;101566.63;;;;-58
2021/01/16 00:18:49;;;;;;;3.81;3.44;;;;;;;17.69;42.61;101566.16;;;;-51
2021/01/16 00:21:49;;;;;;;3.61;3.31;;;;;;;17.66;42.56;101568.20;;;;-52
2021/01/16 00:24:49;;;;;;;3.64;3.34;;;;;;;17.64;42.53;101562.37;;;;-58
2021/01/16 00:27:49;;;;;;;4.00;3.60;;;;;;;17.63;42.62;101565.32;;;;-58
2021/01/16 00:30:49;;;;;;;3.85;3.52;;;;;;;17.61;42.61;101566.16;;;;-58
2021/01/16 00:33:49;;;;;;;3.77;3.43;;;;;;;17.59;42.68;101567.38;;;;-52
2021/01/16 00:36:49;;;;;;;4.05;3.67;;;;;;;17.57;42.65;101562.22;;;;-52
2021/01/16 00:39:49;;;;;;;3.91;3.53;;;;;;;17.56;42.65;101563.98;;;;-58
2021/01/16 00:42:50;;;;;;;3.93;3.49;;;;;;;17.55;42.68;101562.87;;;;-52
2021/01/16 00:45:49;;;;;;;3.91;3.49;;;;;;;17.53;42.65;101559.65;;;;-52
2021/01/16 00:48:49;;;;;;;3.76;3.42;;;;;;;17.51;42.56;101557.97;;;;-52
2021/01/16 00:51:49;;;;;;;3.88;3.56;;;;;;;17.48;42.63;101556.11;;;;-52
2021/01/16 00:54:49;;;;;;;3.64;3.34;;;;;;;17.46;42.67;101553.20;;;;-53
2021/01/16 00:57:49;;;;;;;3.68;3.38;;;;;;;17.45;42.74;101556.92;;;;-52
2021/01/16 01:00:49;;;;;;;3.80;3.43;;;;;;;17.44;42.61;101555.08;;;;-52
2021/01/16 01:03:49;;;;;;;3.75;3.40;;;;;;;17.42;42.68;101554.77;;;;-52
2021/01/16 01:06:49;;;;;;;3.87;3.57;;;;;;;17.40;42.68;101551.87;;;;-52
2021/01/16 01:09:49;;;;;;;3.94;3.54;;;;;;;17.38;42.77;101550.03;;;;-58
2021/01/16 01:12:49;;;;;;;3.73;3.43;;;;;;;17.38;42.80;101554.39;;;;-52
2021/01/16 01:15:49;;;;;;;3.79;3.49;;;;;;;17.36;42.72;101556.12;;;;-58
2021/01/16 01:18:49;;;;;;;3.80;3.42;;;;;;;17.36;42.69;101558.38;;;;-57
2021/01/16 01:21:49;;;;;;;3.87;3.47;;;;;;;17.33;42.66;101552.88;;;;-58
2021/01/16 01:24:49;;;;;;;4.01;3.61;;;;;;;17.31;42.69;101555.97;;;;-58
2021/01/16 01:27:49;;;;;;;3.72;3.41;;;;;;;17.30;42.76;101558.66;;;;-52
2021/01/16 01:30:49;;;;;;;4.27;3.87;;;;;;;17.28;42.82;101557.55;;;;-53
2021/01/16 01:33:49;;;;;;;4.22;3.85;;;;;;;17.27;42.70;101553.47;;;;-58
2021/01/16 01:36:49;;;;;;;4.14;3.77;;;;;;;17.26;42.81;101559.74;;;;-58
2021/01/16 01:39:49;;;;;;;3.95;3.60;;;;;;;17.24;42.72;101559.27;;;;-58
2021/01/16 01:42:49;;;;;;;4.10;3.70;;;;;;;17.23;42.74;101551.16;;;;-52
2021/01/16 01:45:49;;;;;;;4.13;3.73;;;;;;;17.22;42.67;101549.24;;;;-52
2021/01/16 01:48:54;;;;;;;4.05;3.71;;;;;;;17.21;42.78;101554.66;;;;-52
2021/01/16 01:51:49;;;;;;;4.01;3.64;;;;;;;17.20;42.71;101556.06;;;;-53
2021/01/16 01:54:49;;;;;;;3.77;3.47;;;;;;;17.19;42.74;101559.37;;;;-58
2021/01/16 01:57:49;;;;;;;3.92;3.52;;;;;;;17.18;42.70;101554.21;;;;-58
2021/01/16 02:00:49;;;;;;;3.80;3.47;;;;;;;17.17;42.81;101551.52;;;;-58
2021/01/16 02:03:49;;;;;;;4.22;3.82;;;;;;;17.15;42.71;101551.63;;;;-58
2021/01/16 02:06:49;;;;;;;4.20;3.80;;;;;;;17.15;42.85;101547.33;;;;-57
2021/01/16 02:09:49;;;;;;;4.05;3.65;;;;;;;17.13;42.78;101550.17;;;;-58
2021/01/16 02:12:51;;;;;;;4.15;3.73;;;;;;;17.11;42.73;101540.88;;;;-58
2021/01/16 02:15:49;;;;;;;3.89;3.51;;;;;;;17.11;42.78;101544.44;;;;-58
2021/01/16 02:18:49;;;;;;;4.02;3.63;;;;;;;17.09;42.74;101547.38;;;;-58
2021/01/16 02:21:49;;;;;;;3.73;3.43;;;;;;;17.09;42.79;101543.81;;;;-52
2021/01/16 02:24:49;;;;;;;3.83;3.53;;;;;;;17.07;42.73;101538.06;;;;-58
2021/01/16 02:27:49;;;;;;;3.86;3.56;;;;;;;17.07;42.85;101538.80;;;;-58
2021/01/16 02:30:49;;;;;;;3.85;3.54;;;;;;;17.06;42.77;101538.53;;;;-57
2021/01/16 02:33:49;;;;;;;3.79;3.45;;;;;;;17.05;42.81;101539.94;;;;-58
2021/01/16 02:36:49;;;;;;;3.95;3.58;;;;;;;17.03;42.85;101542.23;;;;-58
2021/01/16 02:40:49;;;;;;;3.93;3.63;;;;;;;17.02;42.81;101543.98;;;;-57
2021/01/16 02:43:49;;;;;;;3.68;3.38;;;;;;;17.01;42.79;101548.70;;;;-58
2021/01/16 02:46:49;;;;;;;4.14;3.54;;;;;;;16.99;42.85;101549.38;;;;-58
2021/01/16 02:49:49;;;;;;;3.97;3.59;;;;;;;16.99;42.88;101544.09;;;;-58
2021/01/16 02:52:49;;;;;;;3.77;3.47;;;;;;;16.96;42.77;101543.22;;;;-58
2021/01/16 02:55:49;;;;;;;4.14;3.74;;;;;;;16.96;42.84;101538.27;;;;-57
2021/01/16 02:58:49;;;;;;;3.77;3.47;;;;;;;16.94;42.82;101539.17;;;;-58
2021/01/16 03:01:49;;;;;;;3.88;3.48;;;;;;;16.94;42.88;101541.92;;;;-58
2021/01/16 03:04:49;;;;;;;3.80;3.50;;;;;;;16.93;42.90;101538.30;;;;-58
2021/01/16 03:07:49;;;;;;;3.61;3.31;;;;;;;16.92;42.91;101535.86;;;;-58
2021/01/16 03:10:49;;;;;;;3.73;3.43;;;;;;;16.91;42.85;101535.73;;;;-57
2021/01/16 03:13:49;;;;;;;3.61;3.31;;;;;;;16.89;42.86;101533.64;;;;-58
2021/01/16 03:16:49;;;;;;;3.75;3.41;;;;;;;16.89;42.88;101532.66;;;;-58
2021/01/16 03:19:49;;;;;;;3.95;3.55;;;;;;;16.87;42.87;101529.97;;;;-58
2021/01/16 03:22:50;;;;;;;3.97;3.57;;;;;;;16.87;42.87;101527.53;;;;-57
2021/01/16 03:25:49;;;;;;;4.07;3.67;;;;;;;16.86;42.88;101524.81;;;;-58
2021/01/16 03:28:49;;;;;;;3.80;3.50;;;;;;;16.84;42.85;101527.41;;;;-58
2021/01/16 03:31:49;;;;;;;3.88;3.57;;;;;;;16.84;42.96;101529.11;;;;-58
2021/01/16 03:34:49;;;;;;;3.89;3.54;;;;;;;16.83;42.94;101532.33;;;;-57
2021/01/16 03:37:49;;;;;;;3.93;3.59;;;;;;;16.82;42.74;101526.52;;;;-57
2021/01/16 03:40:49;;;;;;;3.81;3.47;;;;;;;16.82;42.91;101534.30;;;;-57
2021/01/16 03:43:49;;;;;;;3.89;3.59;;;;;;;16.80;42.91;101537.60;;;;-58
2021/01/16 03:46:49;;;;;;;3.70;3.40;;;;;;;16.80;42.90;101549.33;;;;-58
2021/01/16 03:49:49;;;;;;;3.60;3.30;;;;;;;16.80;42.88;101553.30;;;;-57
2021/01/16 03:52:49;;;;;;;3.93;3.57;;;;;;;16.78;42.88;101548.62;;;;-57
2021/01/16 03:55:49;;;;;;;4.15;3.75;;;;;;;16.77;42.89;101550.88;;;;-58
2021/01/16 03:58:49;;;;;;;4.06;3.66;;;;;;;16.76;42.92;101546.85;;;;-57
2021/01/16 04:01:49;;;;;;;3.79;3.47;;;;;;;16.75;42.93;101545.63;;;;-57
2021/01/16 04:04:49;;;;;;;3.95;3.62;;;;;;;16.73;43.00;101545.71;;;;-58
2021/01/16 04:07:49;;;;;;;3.97;3.57;;;;;;;16.74;42.87;101545.39;;;;-58
2021/01/16 04:10:49;;;;;;;4.01;3.63;;;;;;;16.72;42.90;101542.74;;;;-57
2021/01/16 04:13:49;;;;;;;3.73;3.43;;;;;;;16.72;42.91;101544.77;;;;-58
2021/01/16 04:16:49;;;;;;;3.90;3.55;;;;;;;16.70;42.86;101543.72;;;;-58
2021/01/16 04:19:49;;;;;;;4.09;3.69;;;;;;;16.69;42.95;101542.25;;;;-58
2021/01/16 04:22:49;;;;;;;3.63;3.33;;;;;;;16.69;42.92;101542.73;;;;-58
2021/01/16 04:25:49;;;;;;;3.71;3.39;;;;;;;16.66;42.93;101534.47;;;;-58
2021/01/16 04:28:49;;;;;;;3.71;3.41;;;;;;;16.66;42.89;101530.23;;;;-57
2021/01/16 04:31:49;;;;;;;3.80;3.50;;;;;;;16.66;42.91;101529.98;;;;-57
2021/01/16 04:34:49;;;;;;;3.90;3.28;;;;;;;16.66;43.01;101531.76;;;;-57
2021/01/16 04:37:49;;;;;;;4.05;3.73;;;;;;;16.64;42.99;101539.79;;;;-58
2021/01/16 04:40:49;;;;;;;3.64;3.34;;;;;;;16.64;42.92;101545.28;;;;-57
2021/01/16 04:43:49;;;;;;;3.81;3.51;;;;;;;16.62;42.95;101539.91;;;;-58
2021/01/16 04:46:49;;;;;;;3.62;3.32;;;;;;;16.62;42.97;101535.98;;;;-57
2021/01/16 04:49:49;;;;;;;3.87;3.57;;;;;;;16.60;42.93;101538.63;;;;-58
2021/01/16 04:52:49;;;;;;;3.99;3.42;;;;;;;16.59;43.09;101537.77;;;;-57
2021/01/16 04:55:49;;;;;;;4.15;3.49;;;;;;;16.60;43.00;101542.88;;;;-58
2021/01/16 04:58:49;;;;;;;3.63;3.33;;;;;;;16.58;42.97;101545.11;;;;-58
2021/01/16 05:01:49;;;;;;;3.79;3.47;;;;;;;16.57;43.06;101547.80;;;;-57
2021/01/16 05:04:49;;;;;;;3.89;3.59;;;;;;;16.57;43.02;101549.91;;;;-58
2021/01/16 05:07:49;;;;;;;3.83;3.53;;;;;;;16.56;42.97;101554.42;;;;-58
2021/01/16 05:10:49;;;;;;;3.57;3.27;;;;;;;16.55;42.97;101553.41;;;;-58
2021/01/16 05:13:49;;;;;;;3.76;3.46;;;;;;;16.55;43.00;101552.83;;;;-58
2021/01/16 05:16:49;;;;;;;3.73;3.43;;;;;;;16.54;42.98;101552.77;;;;-57
2021/01/16 05:19:49;;;;;;;3.61;3.31;;;;;;;16.53;42.97;101556.48;;;;-57
2021/01/16 05:22:49;;;;;;;3.49;3.19;;;;;;;16.52;43.06;101558.73;;;;-58
2021/01/16 05:25:49;;;;;;;3.74;3.44;;;;;;;16.53;43.09;101558.09;;;;-58
2021/01/16 05:28:49;;;;;;;3.50;3.20;;;;;;;16.52;43.05;101555.73;;;;-58
2021/01/16 05:31:49;;;;;;;3.39;3.09;;;;;;;16.51;42.99;101551.55;;;;-58
2021/01/16 05:34:49;;;;;;;3.70;3.40;;;;;;;16.50;43.00;101546.31;;;;-58
2021/01/16 05:37:49;;;;;;;3.71;3.36;;;;;;;16.48;43.07;101538.59;;;;-57
2021/01/16 05:40:49;;;;;;;3.70;3.37;;;;;;;16.48;43.06;101532.44;;;;-58
2021/01/16 05:43:49;;;;;;;3.59;3.29;;;;;;;16.49;43.08;101534.64;;;;-57
2021/01/16 05:46:49;;;;;;;3.58;3.28;;;;;;;16.47;42.99;101531.73;;;;-58
2021/01/16 05:49:49;;;;;;;3.65;3.35;;;;;;;16.46;43.08;101532.37;;;;-57
2021/01/16 05:52:49;;;;;;;3.55;3.25;;;;;;;16.46;43.00;101534.55;;;;-58
2021/01/16 05:55:49;;;;;;;4.20;3.39;;;;;;;16.45;43.07;101530.55;;;;-52
2021/01/16 05:58:49;;;;;;;3.68;3.38;;;;;;;16.45;43.14;101530.62;;;;-52
2021/01/16 06:01:49;;;;;;;3.34;3.04;;;;;;;16.44;43.09;101527.12;;;;-52
2021/01/16 06:04:49;;;;;;;3.70;3.39;;;;;;;16.43;43.00;101525.29;;;;-53
2021/01/16 06:07:49;;;;;;;10.41;6.02;;;;;;;16.31;40.62;101528.77;;;;-50
2021/01/16 06:10:49;;;;;;;8.56;7.24;;;;;;;15.94;39.45;101516.72;;;;-53
2021/01/16 06:13:49;;;;;;;9.27;8.10;;;;;;;15.71;39.05;101511.16;;;;-52
2021/01/16 06:16:49;;;;;;;10.87;7.95;;;;;;;15.77;40.08;101511.52;;;;-49
2021/01/16 06:19:49;;;;;;;8.75;6.71;;;;;;;15.90;41.19;101510.50;;;;-50
2021/01/16 06:22:50;;;;;;;6.89;6.19;;;;;;;15.99;41.46;101508.88;;;;-51
2021/01/16 06:25:49;;;;;;;6.23;5.62;;;;;;;16.08;41.64;101509.36;;;;-50
2021/01/16 06:28:49;;;;;;;6.27;5.55;;;;;;;16.16;41.66;101515.16;;;;-52
2021/01/16 06:31:49;;;;;;;6.31;5.26;;;;;;;16.21;41.71;101502.59;;;;-51
2021/01/16 06:34:49;;;;;;;6.29;5.13;;;;;;;16.28;41.57;101498.88;;;;-51
2021/01/16 06:37:49;;;;;;;5.53;5.03;;;;;;;16.34;41.69;101498.19;;;;-51
2021/01/16 06:40:49;;;;;;;5.55;4.95;;;;;;;16.39;41.65;101507.18;;;;-52
2021/01/16 06:43:50;;;;;;;5.35;4.65;;;;;;;16.45;41.69;101514.84;;;;-50
2021/01/16 06:46:49;;;;;;;5.36;4.82;;;;;;;16.49;41.63;101511.67;;;;-50
2021/01/16 06:49:50;;;;;;;6.25;4.69;;;;;;;16.54;41.44;101511.87;;;;-53
2021/01/16 06:52:49;;;;;;;5.79;4.35;;;;;;;16.60;41.54;101517.78;;;;-54
2021/01/16 06:55:49;;;;;;;5.45;4.45;;;;;;;16.63;41.58;101515.16;;;;-52
2021/01/16 06:58:49;;;;;;;4.80;4.33;;;;;;;16.68;41.70;101515.16;;;;-52
2021/01/16 07:01:49;;;;;;;4.95;4.45;;;;;;;16.74;41.72;101524.19;;;;-51
2021/01/16 07:04:49;;;;;;;4.93;4.01;;;;;;;16.76;41.74;101527.59;;;;-52
2021/01/16 07:07:51;;;;;;;4.57;3.90;;;;;;;16.81;42.04;101530.36;;;;-52
2021/01/16 07:10:49;;;;;;;4.70;4.05;;;;;;;16.85;42.12;101531.07;;;;-51
2021/01/16 07:13:49;;;;;;;4.25;3.85;;;;;;;16.89;42.21;101534.20;;;;-51
2021/01/16 07:16:49;;;;;;;5.65;4.03;;;;;;;16.92;42.07;101533.03;;;;-51
2021/01/16 07:19:49;;;;;;;4.47;3.88;;;;;;;16.94;42.14;101532.77;;;;-51
2021/01/16 07:22:49;;;;;;;4.56;3.99;;;;;;;16.97;42.03;101530.92;;;;-52
2021/01/16 07:25:49;;;;;;;4.47;3.85;;;;;;;17.01;42.29;101538.27;;;;-51
2021/01/16 07:28:49;;;;;;;4.56;3.61;;;;;;;17.02;42.27;101538.81;;;;-51
2021/01/16 07:31:49;;;;;;;4.15;3.75;;;;;;;17.05;42.30;101540.19;;;;-50
2021/01/16 07:34:49;;;;;;;4.13;3.73;;;;;;;17.07;42.22;101538.47;;;;-50
2021/01/16 07:37:49;;;;;;;4.10;3.70;;;;;;;17.08;42.33;101540.95;;;;-50
2021/01/16 07:40:49;;;;;;;4.17;3.67;;;;;;;17.10;42.28;101533.45;;;;-50
2021/01/16 07:43:49;;;;;;;3.99;3.59;;;;;;;17.10;42.30;101531.78;;;;-51
2021/01/16 07:46:49;;;;;;;5.14;3.77;;;;;;;17.11;42.32;101533.66;;;;-51
2021/01/16 07:49:49;;;;;;;3.88;3.55;;;;;;;17.11;42.39;101536.59;;;;-52
2021/01/16 07:52:49;;;;;;;3.82;3.45;;;;;;;17.12;42.34;101536.11;;;;-51
2021/01/16 07:55:50;;;;;;;3.75;3.45;;;;;;;17.14;42.38;101534.47;;;;-51
2021/01/16 07:58:49;;;;;;;3.95;3.48;;;;;;;17.13;42.37;101529.43;;;;-51
2021/01/16 08:01:49;;;;;;;4.01;3.61;;;;;;;17.13;42.38;101527.81;;;;-50
2021/01/16 08:04:49;;;;;;;3.90;3.43;;;;;;;17.13;42.39;101531.54;;;;-51
2021/01/16 08:07:49;;;;;;;3.70;3.40;;;;;;;17.13;42.42;101530.90;;;;-51
2021/01/16 08:10:49;;;;;;;3.76;3.42;;;;;;;17.13;42.41;101527.58;;;;-51
2021/01/16 08:13:49;;;;;;;3.72;3.42;;;;;;;17.12;42.41;101522.70;;;;-52
2021/01/16 08:16:50;;;;;;;3.75;3.44;;;;;;;17.13;42.39;101519.88;;;;-51
2021/01/16 08:19:49;;;;;;;3.65;3.32;;;;;;;17.12;42.47;101512.38;;;;-51
2021/01/16 08:22:52;;;;;;;3.65;3.35;;;;;;;17.12;42.45;101512.86;;;;-52
2021/01/16 08:25:49;;;;;;;3.74;3.44;;;;;;;17.11;42.50;101507.34;;;;-50
2021/01/16 08:28:49;;;;;;;3.89;3.55;;;;;;;17.11;42.47;101504.98;;;;-51
2021/01/16 08:31:49;;;;;;;3.91;3.50;;;;;;;17.11;42.42;101510.09;;;;-50
2021/01/16 08:34:49;;;;;;;3.90;3.50;;;;;;;17.11;42.38;101516.66;;;;-51
2021/01/16 08:37:49;;;;;;;3.77;3.40;;;;;;;17.11;42.40;101517.71;;;;-52
2021/01/16 08:40:49;;;;;;;3.70;3.40;;;;;;;17.11;42.46;101515.20;;;;-51
2021/01/16 08:43:49;;;;;;;3.55;3.25;;;;;;;17.11;42.56;101511.22;;;;-51
2021/01/16 08:46:49;;;;;;;3.61;3.31;;;;;;;17.11;42.48;101513.16;;;;-51
2021/01/16 08:49:49;;;;;;;3.57;3.27;;;;;;;17.11;42.55;101517.14;;;;-51
2021/01/16 08:52:49;;;;;;;3.79;3.40;;;;;;;17.11;42.40;101518.20;;;;-51
2021/01/16 08:55:49;;;;;;;3.57;3.27;;;;;;;17.11;42.50;101526.45;;;;-51
2021/01/16 08:58:49;;;;;;;3.82;3.49;;;;;;;17.11;42.59;101529.46;;;;-50
2021/01/16 09:01:49;;;;;;;3.81;3.46;;;;;;;17.11;42.56;101536.17;;;;-51
2021/01/16 09:04:49;;;;;;;3.70;3.23;;;;;;;17.12;42.53;101537.64;;;;-51
2021/01/16 09:07:49;;;;;;;3.35;3.05;;;;;;;17.12;42.54;101533.31;;;;-50
2021/01/16 09:10:49;;;;;;;3.52;3.22;;;;;;;17.12;42.57;101531.86;;;;-51
2021/01/16 09:13:49;;;;;;;4.92;3.39;;;;;;;17.15;42.54;101535.01;;;;-51
2021/01/16 09:16:49;;;;;;;5.19;3.22;;;;;;;17.19;43.55;101533.69;;;;-49
2021/01/16 09:19:49;;;;;;;4.33;3.21;;;;;;;17.23;43.60;101537.78;;;;-48
2021/01/16 09:22:49;;;;;;;3.65;3.29;;;;;;;17.26;43.67;101537.95;;;;-51
2021/01/16 09:25:49;;;;;;;3.98;3.10;;;;;;;17.31;43.68;101533.19;;;;-51
2021/01/16 09:28:49;;;;;;;3.64;3.01;;;;;;;17.37;43.66;101535.66;;;;-52
2021/01/16 09:31:49;;;;;;;3.60;3.21;;;;;;;17.43;43.70;101538.58;;;;-54
2021/01/16 09:34:49;;;;;;;6.59;3.16;;;;;;;17.48;43.82;101534.71;;;;-48
2021/01/16 09:37:49;;;;;;;3.26;2.83;;;;;;;17.56;44.02;101540.23;;;;-53
2021/01/16 09:40:49;;;;;;;3.39;3.09;;;;;;;17.61;43.91;101536.23;;;;-55
2021/01/16 09:43:49;;;;;;;3.21;2.91;;;;;;;17.65;43.91;101531.34;;;;-58
2021/01/16 09:46:49;;;;;;;3.89;2.93;;;;;;;17.72;43.74;101532.44;;;;-57
2021/01/16 09:49:49;;;;;;;3.61;3.19;;;;;;;17.73;43.30;101537.19;;;;-57
2021/01/16 09:52:49;;;;;;;3.23;2.83;;;;;;;17.75;43.25;101532.55;;;;-57
2021/01/16 09:55:49;;;;;;;3.53;3.11;;;;;;;17.78;43.12;101526.62;;;;-57
2021/01/16 09:58:49;;;;;;;3.46;2.97;;;;;;;17.80;43.11;101517.77;;;;-57
2021/01/16 10:01:49;;;;;;;3.53;2.86;;;;;;;17.84;43.24;101513.79;;;;-52
2021/01/16 10:04:49;;;;;;;3.36;3.01;;;;;;;17.87;43.39;101509.43;;;;-50
2021/01/16 10:07:49;;;;;;;3.11;2.81;;;;;;;17.92;43.37;101507.38;;;;-52
2021/01/16 10:10:49;;;;;;;8.72;3.13;;;;;;;17.98;43.34;101508.62;;;;-51
2021/01/16 10:13:49;;;;;;;3.36;2.73;;;;;;;18.02;43.45;101501.19;;;;-51
2021/01/16 10:16:50;;;;;;;3.17;2.86;;;;;;;18.05;43.63;101495.86;;;;-52
2021/01/16 10:19:49;;;;;;;4.02;2.97;;;;;;;18.10;43.47;101489.75;;;;-51
2021/01/16 10:22:52;;;;;;;4.03;2.73;;;;;;;18.14;43.51;101485.39;;;;-48
2021/01/16 10:25:49;;;;;;;3.77;2.90;;;;;;;18.17;43.56;101481.56;;;;-53
2021/01/16 10:28:49;;;;;;;4.11;3.01;;;;;;;18.20;43.49;101475.34;;;;-52
2021/01/16 10:31:49;;;;;;;3.27;2.97;;;;;;;18.23;43.29;101470.95;;;;-53
2021/01/16 10:34:49;;;;;;;4.66;2.95;;;;;;;18.26;43.53;101466.34;;;;-53
2021/01/16 10:37:49;;;;;;;3.36;2.99;;;;;;;18.28;43.42;101461.45;;;;-52
2021/01/16 10:40:49;;;;;;;3.78;2.92;;;;;;;18.31;43.62;101457.38;;;;-58
2021/01/16 10:43:49;;;;;;;3.77;2.79;;;;;;;18.34;43.67;101455.98;;;;-59
2021/01/16 10:46:50;;;;;;;3.26;2.96;;;;;;;18.38;43.46;101450.34;;;;-54
2021/01/16 10:49:49;;;;;;;3.29;2.99;;;;;;;18.41;43.45;101447.67;;;;-54
2021/01/16 10:52:49;;;;;;;3.21;2.91;;;;;;;18.42;43.45;101448.01;;;;-57
2021/01/16 10:55:50;;;;;;;5.53;2.94;;;;;;;18.46;43.60;101443.09;;;;-53
2021/01/16 10:58:49;;;;;;;3.10;2.80;;;;;;;18.50;43.66;101436.53;;;;-51
2021/01/16 11:01:49;;;;;;;3.15;2.85;;;;;;;18.55;43.63;101432.75;;;;-50
2021/01/16 11:04:49;;;;;;;3.10;2.80;;;;;;;18.57;43.57;101433.53;;;;-55
2021/01/16 11:07:49;;;;;;;3.33;3.03;;;;;;;18.59;43.52;101430.91;;;;-47
2021/01/16 11:10:49;;;;;;;3.19;2.89;;;;;;;18.63;43.45;101426.37;;;;-46
2021/01/16 11:13:49;;;;;;;3.76;2.98;;;;;;;18.71;43.70;101422.44;;;;-51
2021/01/16 11:16:49;;;;;;;7.57;3.18;;;;;;;18.78;43.56;101422.80;;;;-53
2021/01/16 11:19:49;;;;;;;8.43;3.37;;;;;;;18.83;44.27;101421.41;;;;-52
2021/01/16 11:22:49;;;;;;;5.05;3.11;;;;;;;18.84;43.52;101421.56;;;;-52
2021/01/16 11:26:49;;;;;;;8.25;3.26;;;;;;;18.87;43.55;101406.64;;;;-55
2021/01/16 11:29:49;;;;;;;4.91;3.11;;;;;;;18.84;43.35;101405.57;;;;-54
2021/01/16 11:32:49;;;;;;;3.62;2.77;;;;;;;18.83;43.25;101400.28;;;;-54
2021/01/16 11:35:49;;;;;;;4.27;3.54;;;;;;;18.82;43.23;101394.19;;;;-58
2021/01/16 11:38:49;;;;;;;5.59;3.23;;;;;;;18.82;42.93;101397.00;;;;-55
2021/01/16 11:41:49;;;;;;;4.26;2.88;;;;;;;18.81;42.92;101392.84;;;;-56
2021/01/16 11:44:49;;;;;;;4.82;3.25;;;;;;;18.81;42.85;101393.98;;;;-56
2021/01/16 11:47:49;;;;;;;3.97;3.11;;;;;;;18.78;42.80;101388.66;;;;-55
2021/01/16 11:50:50;;;;;;;4.16;2.99;;;;;;;18.77;42.86;101390.77;;;;-55
2021/01/16 11:53:49;;;;;;;3.41;2.79;;;;;;;18.76;42.79;101387.19;;;;-56
2021/01/16 11:56:49;;;;;;;3.29;2.78;;;;;;;18.76;42.79;101384.19;;;;-55
2021/01/16 11:59:49;;;;;;;3.73;2.97;;;;;;;18.77;42.74;101378.91;;;;-55
2021/01/16 12:02:49;;;;;;;3.48;2.81;;;;;;;18.78;42.69;101374.41;;;;-56
2021/01/16 12:05:49;;;;;;;3.37;2.91;;;;;;;18.79;42.65;101367.62;;;;-56
2021/01/16 12:08:49;;;;;;;3.51;2.92;;;;;;;18.80;42.67;101366.84;;;;-56
2021/01/16 12:11:49;;;;;;;3.66;2.93;;;;;;;18.83;42.68;101363.41;;;;-56
2021/01/16 12:14:49;;;;;;;2.99;2.71;;;;;;;18.83;42.63;101364.55;;;;-56
2021/01/16 12:17:49;;;;;;;3.68;2.88;;;;;;;18.85;42.62;101358.09;;;;-56
2021/01/16 12:20:49;;;;;;;3.49;2.81;;;;;;;18.87;42.56;101357.82;;;;-56
2021/01/16 12:23:49;;;;;;;3.94;2.81;;;;;;;18.88;42.55;101348.04;;;;-51
2021/01/16 12:26:49;;;;;;;5.50;3.04;;;;;;;18.91;42.83;101343.13;;;;-55
2021/01/16 12:29:49;;;;;;;6.89;3.08;;;;;;;18.92;42.88;101335.43;;;;-60
2021/01/16 12:32:49;;;;;;;4.23;2.80;;;;;;;18.95;42.93;101326.41;;;;-56
2021/01/16 12:35:49;;;;;;;3.00;2.70;;;;;;;18.96;42.88;101324.23;;;;-56
2021/01/16 12:38:49;;;;;;;3.81;3.06;;;;;;;19.00;43.00;101319.44;;;;-52
2021/01/16 12:41:49;;;;;;;3.33;2.77;;;;;;;19.01;42.95;101316.84;;;;-52
2021/01/16 12:44:49;;;;;;;3.05;2.70;;;;;;;19.02;43.02;101312.50;;;;-55
2021/01/16 12:47:49;;;;;;;4.21;2.96;;;;;;;19.03;42.85;101310.39;;;;-55
2021/01/16 12:50:49;;;;;;;3.23;2.82;;;;;;;19.02;42.75;101302.27;;;;-55
2021/01/16 12:53:51;;;;;;;3.81;2.70;;;;;;;19.03;42.71;101306.01;;;;-55
2021/01/16 12:56:49;;;;;;;3.17;2.69;;;;;;;19.02;42.65;101302.75;;;;-55
2021/01/16 12:59:49;;;;;;;2.98;2.69;;;;;;;19.02;42.63;101296.50;;;;-55
2021/01/16 13:02:49;;;;;;;4.43;2.85;;;;;;;19.02;42.61;101290.24;;;;-55
2021/01/16 13:05:49;;;;;;;3.02;2.72;;;;;;;19.01;42.59;101282.52;;;;-55
2021/01/16 13:08:49;;;;;;;3.54;2.89;;;;;;;19.02;42.57;101282.93;;;;-55
2021/01/16 13:11:49;;;;;;;3.51;2.83;;;;;;;19.02;42.50;101278.79;;;;-55
2021/01/16 13:14:49;;;;;;;3.05;2.65;;;;;;;19.02;42.57;101278.30;;;;-55
2021/01/16 13:17:49;;;;;;;4.74;2.85;;;;;;;19.02;42.54;101271.40;;;;-55
2021/01/16 13:20:49;;;;;;;2.90;2.70;;;;;;;19.02;42.52;101267.98;;;;-56
2021/01/16 13:23:49;;;;;;;3.67;2.95;;;;;;;19.02;42.45;101263.27;;;;-55
2021/01/16 13:26:49;;;;;;;3.51;2.71;;;;;;;19.02;42.53;101256.86;;;;-54
2021/01/16 13:29:49;;;;;;;3.10;2.80;;;;;;;19.02;42.39;101257.91;;;;-55
2021/01/16 13:32:49;;;;;;;3.90;2.78;;;;;;;19.02;42.37;101252.47;;;;-56
2021/01/16 13:35:49;;;;;;;3.05;2.77;;;;;;;19.03;42.42;101249.95;;;;-55
2021/01/16 13:38:50;;;;;;;2.92;2.62;;;;;;;19.02;42.38;101248.08;;;;-55
2021/01/16 13:41:49;;;;;;;2.99;2.67;;;;;;;19.02;42.42;101245.97;;;;-55
2021/01/16 13:44:49;;;;;;;3.48;2.61;;;;;;;19.02;42.42;101251.33;;;;-55
2021/01/16 13:47:49;;;;;;;2.99;2.73;;;;;;;19.03;42.38;101248.66;;;;-56
2021/01/16 13:50:49;;;;;;;5.29;3.29;;;;;;;19.01;41.75;101248.23;;;;-59
2021/01/16 13:53:49;;;;;;;3.83;3.22;;;;;;;19.02;41.58;101242.56;;;;-59
2021/01/16 13:56:50;;;;;;;3.40;2.83;;;;;;;19.04;41.87;101239.43;;;;-50
2021/01/16 13:59:49;;;;;;;5.48;3.15;;;;;;;19.01;42.01;101236.70;;;;-48
2021/01/16 14:02:49;;;;;;;6.97;3.59;;;;;;;19.02;41.24;101233.86;;;;-55
2021/01/16 14:05:49;;;;;;;3.65;3.17;;;;;;;19.04;41.70;101232.61;;;;-54
2021/01/16 14:08:49;;;;;;;5.13;3.17;;;;;;;19.07;42.08;101226.92;;;;-51
2021/01/16 14:11:49;;;;;;;6.50;3.35;;;;;;;19.08;41.92;101221.97;;;;-50
2021/01/16 14:14:51;;;;;;;5.67;3.19;;;;;;;19.12;42.16;101220.83;;;;-52
2021/01/16 14:17:49;;;;;;;5.85;3.06;;;;;;;19.14;42.27;101214.70;;;;-49
2021/01/16 14:20:49;;;;;;;5.01;3.05;;;;;;;19.16;42.30;101209.78;;;;-48
2021/01/16 14:23:51;;;;;;;4.79;3.03;;;;;;;19.17;42.47;101208.32;;;;-48
2021/01/16 14:26:49;;;;;;;4.61;3.05;;;;;;;19.20;42.45;101212.22;;;;-49
2021/01/16 14:29:49;;;;;;;4.73;2.94;;;;;;;19.21;42.51;101208.89;;;;-49
2021/01/16 14:32:49;;;;;;;4.06;2.99;;;;;;;19.22;42.50;101206.25;;;;-53
2021/01/16 14:35:49;;;;;;;3.75;3.02;;;;;;;19.24;42.61;101208.80;;;;-50
2021/01/16 14:38:49;;;;;;;3.69;2.82;;;;;;;19.25;42.52;101210.84;;;;-54
2021/01/16 14:41:49;;;;;;;3.06;2.76;;;;;;;19.25;42.58;101207.27;;;;-50
2021/01/16 14:44:49;;;;;;;4.08;2.85;;;;;;;19.26;42.56;101204.94;;;;-49
2021/01/16 14:47:49;;;;;;;3.73;2.81;;;;;;;19.27;42.60;101201.61;;;;-45
2021/01/16 14:50:49;;;;;;;3.14;2.84;;;;;;;19.27;42.69;101197.47;;;;-44
2021/01/16 14:53:49;;;;;;;4.62;2.95;;;;;;;19.31;42.82;101195.11;;;;-49
2021/01/16 14:56:49;;;;;;;3.61;2.74;;;;;;;19.35;43.26;101190.15;;;;-46
2021/01/16 14:59:49;;;;;;;4.61;2.90;;;;;;;19.36;43.28;101190.10;;;;-54
2021/01/16 15:02:49;;;;;;;3.17;2.67;;;;;;;19.39;43.28;101190.47;;;;-43
2021/01/16 15:05:49;;;;;;;5.17;2.99;;;;;;;19.44;43.83;101187.16;;;;-48
2021/01/16 15:08:49;;;;;;;6.45;3.05;;;;;;;19.46;43.28;101184.81;;;;-51
2021/01/16 15:11:49;;;;;;;4.88;3.10;;;;;;;19.46;43.00;101188.14;;;;-49
2021/01/16 15:14:49;;;;;;;9.62;3.29;;;;;;;19.45;42.48;101182.20;;;;-48
2021/01/16 15:17:49;;;;;;;6.55;3.17;;;;;;;19.43;42.31;101181.52;;;;-47
2021/01/16 15:20:51;;;;;;;4.01;3.11;;;;;;;19.40;42.36;101181.23;;;;-46
2021/01/16 15:23:49;;;;;;;5.64;2.91;;;;;;;19.39;42.39;101177.05;;;;-47
2021/01/16 15:26:49;;;;;;;5.29;2.96;;;;;;;19.38;42.38;101172.95;;;;-46
2021/01/16 15:29:49;;;;;;;4.77;2.97;;;;;;;19.38;42.36;101171.28;;;;-46
2021/01/16 15:32:49;;;;;;;6.24;3.16;;;;;;;19.39;42.38;101164.62;;;;-56
2021/01/16 15:35:49;;;;;;;4.35;2.97;;;;;;;19.41;42.69;101162.22;;;;-58
2021/01/16 15:38:49;;;;;;;5.84;2.86;;;;;;;19.42;42.70;101164.25;;;;-54
2021/01/16 15:41:50;;;;;;;5.25;3.21;;;;;;;19.43;42.67;101169.08;;;;-58
2021/01/16 15:44:49;;;;;;;5.47;2.94;;;;;;;19.46;42.59;101160.54;;;;-57
2021/01/16 15:47:49;;;;;;;4.57;3.09;;;;;;;19.47;42.65;101162.08;;;;-54
2021/01/16 15:50:49;;;;;;;4.07;3.07;;;;;;;19.46;42.59;101162.30;;;;-57
2021/01/16 15:53:49;;;;;;;5.39;3.01;;;;;;;19.47;42.67;101154.93;;;;-49
2021/01/16 15:56:49;;;;;;;4.52;2.91;;;;;;;19.47;42.71;101151.44;;;;-56
2021/01/16 15:59:49;;;;;;;3.98;3.11;;;;;;;19.47;42.64;101150.78;;;;-57
2021/01/16 16:02:49;;;;;;;4.26;3.01;;;;;;;19.49;42.66;101149.60;;;;-59
2021/01/16 16:05:50;;;;;;;3.24;2.94;;;;;;;19.52;42.69;101145.49;;;;-59
2021/01/16 16:08:49;;;;;;;4.23;2.91;;;;;;;19.54;42.85;101144.39;;;;-58
2021/01/16 16:11:49;;;;;;;3.55;2.86;;;;;;;19.56;42.76;101137.59;;;;-54
2021/01/16 16:14:49;;;;;;;4.24;2.89;;;;;;;19.59;42.90;101130.51;;;;-51
2021/01/16 16:17:49;;;;;;;4.31;2.81;;;;;;;19.61;42.81;101132.13;;;;-61
2021/01/16 16:20:49;;;;;;;3.77;2.90;;;;;;;19.62;42.86;101126.39;;;;-51
2021/01/16 16:23:49;;;;;;;3.95;2.84;;;;;;;19.66;42.83;101125.64;;;;-57
2021/01/16 16:26:49;;;;;;;4.31;2.78;;;;;;;19.68;42.81;101124.78;;;;-57
2021/01/16 16:29:49;;;;;;;4.28;2.79;;;;;;;19.68;42.67;101121.61;;;;-51
2021/01/16 16:32:49;;;;;;;3.09;2.79;;;;;;;19.69;42.71;101124.70;;;;-49
2021/01/16 16:35:49;;;;;;;4.81;3.13;;;;;;;19.66;42.24;101117.84;;;;-56
2021/01/16 16:38:49;;;;;;;5.97;3.43;;;;;;;19.67;42.30;101112.88;;;;-58
2021/01/16 16:41:49;;;;;;;5.32;3.11;;;;;;;19.68;42.23;101114.70;;;;-51
2021/01/16 16:44:49;;;;;;;4.74;3.06;;;;;;;19.68;42.26;101117.95;;;;-50